Time;durP1;ratioP1;P1;durP2;ratioP2;P2;SDS_P1;SDS_P2;PMS_P1;PMS_P2;Temp;Humidity;BMP_temperature;BMP_pressure;BME280_temperature;BME280_humidity;BME280_pressure;Samples;Min_cycle;Max_cycle;Signal;HPM_P1;HPM_P2
2021/04/17 00:01:02;;;;;;;1.33;0.90;;;;;;;;;;4993440;28;20496;-68
2021/04/17 00:03:28;;;;;;;1.80;1.63;;;;;;;;;;5011022;28;20453;-69
2021/04/17 00:05:54;;;;;;;1.53;1.43;;;;;;;;;;5013565;28;20420;-69
2021/04/17 00:08:20;;;;;;;1.37;1.13;;;;;;;;;;5020643;28;20459;-69
2021/04/17 00:10:46;;;;;;;1.10;0.83;;;;;;;;;;5017969;28;20413;-69
2021/04/17 00:13:12;;;;;;;2.50;1.33;;;;;;;;;;5014016;28;20447;-68
2021/04/17 00:15:38;;;;;;;0.80;0.60;;;;;;;;;;5014672;28;20420;-69
2021/04/17 00:18:04;;;;;;;0.80;0.70;;;;;;;;;;5013561;28;20800;-68
2021/04/17 00:20:30;;;;;;;3.13;0.77;;;;;;;;;;5014584;28;20498;-68
2021/04/17 00:22:56;;;;;;;1.40;0.70;;;;;;;;;;5012829;28;20417;-68
2021/04/17 00:25:22;;;;;;;1.47;0.80;;;;;;;;;;5014579;28;20428;-68
2021/04/17 00:27:48;;;;;;;1.03;0.93;;;;;;;;;;5014695;28;20524;-69
2021/04/17 00:30:14;;;;;;;0.80;0.60;;;;;;;;;;5013359;28;20483;-68
2021/04/17 00:32:40;;;;;;;0.70;0.70;;;;;;;;;;5012415;28;20765;-68
2021/04/17 00:35:07;;;;;;;0.70;0.50;;;;;;;;;;5014317;28;20393;-69
2021/04/17 00:37:33;;;;;;;1.30;1.20;;;;;;;;;;5013845;28;20967;-69
2021/04/17 00:39:58;;;;;;;0.80;0.60;;;;;;;;;;5014165;28;20436;-68
2021/04/17 00:42:24;;;;;;;0.70;0.50;;;;;;;;;;5012738;28;20919;-69
2021/04/17 00:44:50;;;;;;;1.53;0.70;;;;;;;;;;5013851;28;20456;-68
2021/04/17 00:47:16;;;;;;;0.90;0.67;;;;;;;;;;5014199;28;20435;-69
2021/04/17 00:49:42;;;;;;;1.20;0.90;;;;;;;;;;5013871;28;20405;-69
2021/04/17 00:52:09;;;;;;;0.80;0.70;;;;;;;;;;5001668;28;20440;-69
2021/04/17 00:54:34;;;;;;;0.80;0.60;;;;;;;;;;4994173;28;20406;-68
2021/04/17 00:57:01;;;;;;;0.70;0.60;;;;;;;;;;4994442;28;20408;-68
2021/04/17 00:59:27;;;;;;;0.93;0.60;;;;;;;;;;4994102;28;20441;-68
2021/04/17 01:01:53;;;;;;;3.67;2.50;;;;;;;;;;5002280;28;20448;-67
2021/04/17 01:04:27;;;;;;;0.80;0.60;;;;;;;;;;5013745;28;20938;-70
2021/04/17 01:07:03;;;;;;;1.00;0.70;;;;;;;;;;5013644;28;20764;-69
2021/04/17 01:09:29;;;;;;;1.63;1.53;;;;;;;;;;5022779;28;20416;-69
2021/04/17 01:11:58;;;;;;;1.10;1.00;;;;;;;;;;5010612;28;20417;-69
2021/04/17 01:14:25;;;;;;;2.40;1.10;;;;;;;;;;5013383;28;20405;-69
2021/04/17 01:16:51;;;;;;;0.70;0.50;;;;;;;;;;5012496;28;20491;-69
2021/04/17 01:19:28;;;;;;;0.80;0.63;;;;;;;;;;5013260;28;20421;-69
2021/04/17 01:21:55;;;;;;;1.00;0.83;;;;;;;;;;5003977;28;20420;-69
2021/04/17 01:24:22;;;;;;;1.10;0.70;;;;;;;;;;4993674;28;20956;-70
2021/04/17 01:26:48;;;;;;;0.80;0.50;;;;;;;;;;4994257;28;20957;-69
2021/04/17 01:29:14;;;;;;;0.80;0.60;;;;;;;;;;5003827;28;20480;-70
2021/04/17 01:31:41;;;;;;;2.87;1.17;;;;;;;;;;5005544;28;20417;-69
2021/04/17 01:34:08;;;;;;;0.90;0.77;;;;;;;;;;4993653;28;20808;-69
2021/04/17 01:36:35;;;;;;;0.90;0.70;;;;;;;;;;4993714;28;20485;-69
2021/04/17 01:39:05;;;;;;;1.00;0.60;;;;;;;;;;5003526;28;20488;-68
2021/04/17 01:41:34;;;;;;;0.70;0.50;;;;;;;;;;5008456;28;20483;-69
2021/04/17 01:44:02;;;;;;;0.70;0.60;;;;;;;;;;4995786;28;20456;-70
2021/04/17 01:46:33;;;;;;;0.97;0.60;;;;;;;;;;4993213;28;20412;-69
2021/04/17 01:49:00;;;;;;;1.00;0.67;;;;;;;;;;4993478;28;20467;-69
2021/04/17 01:51:27;;;;;;;1.30;0.97;;;;;;;;;;4995658;28;20423;-68
2021/04/17 01:53:54;;;;;;;0.90;0.70;;;;;;;;;;5012694;28;20435;-67
2021/04/17 01:56:21;;;;;;;0.90;0.70;;;;;;;;;;5012786;28;20465;-68
2021/04/17 01:58:48;;;;;;;0.70;0.50;;;;;;;;;;5012505;28;20424;-67
2021/04/17 02:01:17;;;;;;;0.70;0.50;;;;;;;;;;4998910;28;20424;-68
2021/04/17 02:03:43;;;;;;;1.13;0.60;;;;;;;;;;4991440;28;20457;-69
2021/04/17 02:06:09;;;;;;;0.70;0.50;;;;;;;;;;4992997;28;20975;-68
2021/04/17 02:08:36;;;;;;;0.80;0.70;;;;;;;;;;5009609;28;20423;-68
2021/04/17 02:11:03;;;;;;;0.80;0.67;;;;;;;;;;5012850;28;20931;-70
2021/04/17 02:13:29;;;;;;;0.80;0.50;;;;;;;;;;5012284;28;20798;-68
2021/04/17 02:15:58;;;;;;;0.70;0.50;;;;;;;;;;5011714;28;20401;-68
2021/04/17 02:18:36;;;;;;;0.93;0.83;;;;;;;;;;5012134;28;20508;-68
2021/04/17 02:21:04;;;;;;;0.70;0.50;;;;;;;;;;5005578;28;20488;-68
2021/04/17 02:23:30;;;;;;;0.70;0.50;;;;;;;;;;5000906;28;20475;-67
2021/04/17 02:25:57;;;;;;;10.73;1.27;;;;;;;;;;5009345;28;20421;-67
2021/04/17 02:28:25;;;;;;;0.70;0.50;;;;;;;;;;5011321;28;20470;-68
2021/04/17 02:30:51;;;;;;;0.80;0.67;;;;;;;;;;5010612;28;20409;-68
2021/04/17 02:33:17;;;;;;;1.00;0.50;;;;;;;;;;5010770;28;20490;-69
2021/04/17 02:35:43;;;;;;;0.80;0.60;;;;;;;;;;5011662;28;20424;-68
2021/04/17 02:38:09;;;;;;;0.70;0.50;;;;;;;;;;5011760;28;20471;-69
2021/04/17 02:40:35;;;;;;;4.80;0.70;;;;;;;;;;4993379;28;20420;-68
2021/04/17 02:43:01;;;;;;;0.90;0.70;;;;;;;;;;4992089;28;20529;-68
2021/04/17 02:45:27;;;;;;;1.07;0.70;;;;;;;;;;4991976;28;20530;-68
2021/04/17 02:47:53;;;;;;;0.80;0.60;;;;;;;;;;4992102;28;20921;-68
2021/04/17 02:50:20;;;;;;;0.70;0.50;;;;;;;;;;5010359;28;20416;-68
2021/04/17 02:52:46;;;;;;;2.93;0.60;;;;;;;;;;5006745;28;20424;-68
2021/04/17 02:55:12;;;;;;;0.80;0.80;;;;;;;;;;4992124;28;20415;-68
2021/04/17 02:57:38;;;;;;;3.13;1.93;;;;;;;;;;4991910;28;20428;-68
2021/04/17 03:00:08;;;;;;;1.43;0.70;;;;;;;;;;4991943;28;20416;-67
2021/04/17 03:02:34;;;;;;;0.80;0.50;;;;;;;;;;4992847;28;20443;-67
2021/04/17 03:05:01;;;;;;;1.67;1.20;;;;;;;;;;5011689;28;20475;-68
2021/04/17 03:07:27;;;;;;;0.87;0.67;;;;;;;;;;5011290;28;20424;-68
2021/04/17 03:09:53;;;;;;;1.00;0.80;;;;;;;;;;5021711;28;20408;-68
2021/04/17 03:12:19;;;;;;;0.80;0.50;;;;;;;;;;5010341;28;20767;-67
2021/04/17 03:14:44;;;;;;;0.70;0.60;;;;;;;;;;5011092;28;20455;-67
2021/04/17 03:17:10;;;;;;;0.90;0.90;;;;;;;;;;5011331;28;20409;-67
2021/04/17 03:19:37;;;;;;;1.13;0.60;;;;;;;;;;5011169;28;20507;-67
2021/04/17 03:22:03;;;;;;;0.83;0.60;;;;;;;;;;5010496;28;20416;-68
2021/04/17 03:24:29;;;;;;;0.80;0.60;;;;;;;;;;4997340;28;20460;-68
2021/04/17 03:26:57;;;;;;;0.70;0.60;;;;;;;;;;5011197;28;20397;-68
2021/04/17 03:29:23;;;;;;;1.47;0.73;;;;;;;;;;5010330;28;20765;-68
2021/04/17 03:31:49;;;;;;;0.70;0.40;;;;;;;;;;5010125;28;20410;-68
2021/04/17 03:34:15;;;;;;;1.27;1.17;;;;;;;;;;4995675;28;20427;-68
2021/04/17 03:36:41;;;;;;;1.83;0.57;;;;;;;;;;4991340;28;20406;-68
2021/04/17 03:39:07;;;;;;;2.77;0.90;;;;;;;;;;5029562;23;20497;-66
2021/04/17 03:41:33;;;;;;;0.80;0.60;;;;;;;;;;5018797;28;20419;-68
2021/04/17 03:43:59;;;;;;;0.70;0.60;;;;;;;;;;5028634;28;20444;-69
2021/04/17 03:46:25;;;;;;;2.33;0.67;;;;;;;;;;5026256;28;20416;-69
2021/04/17 03:48:51;;;;;;;0.70;0.50;;;;;;;;;;5010179;28;21038;-68
2021/04/17 03:51:17;;;;;;;0.90;0.60;;;;;;;;;;5009973;28;20911;-69
2021/04/17 03:53:43;;;;;;;1.30;1.20;;;;;;;;;;5019794;28;20486;-69
2021/04/17 03:56:09;;;;;;;1.20;0.80;;;;;;;;;;5030094;28;20423;-65
2021/04/17 03:58:35;;;;;;;0.90;0.60;;;;;;;;;;5030099;28;20431;-69
2021/04/17 04:01:00;;;;;;;0.80;0.73;;;;;;;;;;5033764;28;20416;-64
2021/04/17 04:03:26;;;;;;;1.47;0.90;;;;;;;;;;5029243;28;20458;-67
2021/04/17 04:05:52;;;;;;;0.80;0.60;;;;;;;;;;5030374;28;20431;-66
2021/04/17 04:08:18;;;;;;;3.90;1.10;;;;;;;;;;5036517;28;20943;-66
2021/04/17 04:10:44;;;;;;;1.07;0.53;;;;;;;;;;5034165;28;20416;-67
2021/04/17 04:13:10;;;;;;;0.80;0.63;;;;;;;;;;5029566;28;20416;-66
2021/04/17 04:15:36;;;;;;;0.80;0.60;;;;;;;;;;5030329;28;20767;-66
2021/04/17 04:18:02;;;;;;;0.80;0.53;;;;;;;;;;5024841;28;20522;-67
2021/04/17 04:20:28;;;;;;;0.80;0.63;;;;;;;;;;5010174;28;20749;-67
2021/04/17 04:22:54;;;;;;;0.90;0.57;;;;;;;;;;5013156;28;20503;-68
2021/04/17 04:25:20;;;;;;;1.00;0.77;;;;;;;;;;5029958;28;20920;-68
2021/04/17 04:27:46;;;;;;;0.80;0.80;;;;;;;;;;5030687;28;20420;-68
2021/04/17 04:30:12;;;;;;;4.27;1.03;;;;;;;;;;5029354;28;20423;-67
2021/04/17 04:32:38;;;;;;;1.43;1.33;;;;;;;;;;5027768;28;20415;-67
2021/04/17 04:35:05;;;;;;;1.10;1.00;;;;;;;;;;5029777;28;20422;-66
2021/04/17 04:37:31;;;;;;;1.20;0.77;;;;;;;;;;5030032;28;20404;-68
2021/04/17 04:39:57;;;;;;;2.07;0.80;;;;;;;;;;5030052;28;20427;-67
2021/04/17 04:42:23;;;;;;;1.27;1.17;;;;;;;;;;5029396;28;20442;-66
2021/04/17 04:44:49;;;;;;;1.63;1.03;;;;;;;;;;5029951;28;20454;-66
2021/04/17 04:47:15;;;;;;;0.70;0.60;;;;;;;;;;5017106;28;20412;-66
2021/04/17 04:49:41;;;;;;;0.77;0.60;;;;;;;;;;5010777;28;20775;-66
2021/04/17 04:52:07;;;;;;;1.50;1.07;;;;;;;;;;5017201;28;20412;-66
2021/04/17 04:54:33;;;;;;;0.80;0.60;;;;;;;;;;5032858;28;20431;-69
2021/04/17 04:56:59;;;;;;;1.33;0.87;;;;;;;;;;5033263;28;20421;-66
2021/04/17 04:59:25;;;;;;;0.70;0.40;;;;;;;;;;5032639;28;20835;-69
2021/04/17 05:01:50;;;;;;;1.00;0.67;;;;;;;;;;5032412;28;20465;-68
2021/04/17 05:04:16;;;;;;;1.90;0.90;;;;;;;;;;5032300;28;20558;-67
2021/04/17 05:06:42;;;;;;;0.70;0.60;;;;;;;;;;5032288;28;20431;-64
2021/04/17 05:09:08;;;;;;;1.10;1.00;;;;;;;;;;5035273;28;20921;-66
2021/04/17 05:11:34;;;;;;;3.00;1.93;;;;;;;;;;5033236;28;20771;-65
2021/04/17 05:14:01;;;;;;;0.83;0.60;;;;;;;;;;5033868;28;20414;-66
2021/04/17 05:16:27;;;;;;;7.87;1.90;;;;;;;;;;5031925;28;20408;-67
2021/04/17 05:18:53;;;;;;;1.13;1.03;;;;;;;;;;5034164;28;20424;-68
2021/04/17 05:21:19;;;;;;;0.90;0.53;;;;;;;;;;5032250;28;20831;-66
2021/04/17 05:23:45;;;;;;;0.97;0.87;;;;;;;;;;5030516;28;20451;-64
2021/04/17 05:26:11;;;;;;;0.80;0.70;;;;;;;;;;5032950;28;20404;-68
2021/04/17 05:28:36;;;;;;;2.60;1.07;;;;;;;;;;5032750;28;20503;-68
2021/04/17 05:31:02;;;;;;;0.87;0.57;;;;;;;;;;5032087;28;20388;-69
2021/04/17 05:33:28;;;;;;;2.30;0.80;;;;;;;;;;5032432;28;20541;-66
2021/04/17 05:35:54;;;;;;;0.70;0.60;;;;;;;;;;5032691;28;20449;-67
2021/04/17 05:38:20;;;;;;;1.33;0.90;;;;;;;;;;5032237;28;20832;-68
2021/04/17 05:40:46;;;;;;;0.90;0.90;;;;;;;;;;5032441;28;20427;-68
2021/04/17 05:43:12;;;;;;;0.90;0.63;;;;;;;;;;5031599;28;20507;-67
2021/04/17 05:45:38;;;;;;;2.10;1.60;;;;;;;;;;5032614;28;20426;-68
2021/04/17 05:48:04;;;;;;;1.17;1.07;;;;;;;;;;5032546;28;20982;-68
2021/04/17 05:50:30;;;;;;;10.40;1.00;;;;;;;;;;5031727;28;20438;-68
2021/04/17 05:52:56;;;;;;;0.80;0.73;;;;;;;;;;5031314;28;20448;-69
2021/04/17 05:55:22;;;;;;;1.40;0.80;;;;;;;;;;5032113;28;20407;-67
2021/04/17 05:57:48;;;;;;;0.83;0.60;;;;;;;;;;5022893;28;20563;-67
2021/04/17 06:00:14;;;;;;;1.23;1.13;;;;;;;;;;5028789;28;20428;-66
2021/04/17 06:02:41;;;;;;;0.80;0.70;;;;;;;;;;5027843;28;20415;-67
2021/04/17 06:05:07;;;;;;;2.00;0.70;;;;;;;;;;5029188;28;20459;-66
2021/04/17 06:07:33;;;;;;;4.07;2.67;;;;;;;;;;5030274;28;20475;-66
2021/04/17 06:09:59;;;;;;;1.03;0.93;;;;;;;;;;5042314;28;20917;-65
2021/04/17 06:12:25;;;;;;;0.70;0.60;;;;;;;;;;5030419;28;20459;-67
2021/04/17 06:14:51;;;;;;;0.90;0.80;;;;;;;;;;5031403;28;20405;-68
2021/04/17 06:17:17;;;;;;;1.00;0.80;;;;;;;;;;5032204;28;20416;-69
2021/04/17 06:19:43;;;;;;;2.03;1.13;;;;;;;;;;5035675;28;20434;-68
2021/04/17 06:22:09;;;;;;;0.70;0.50;;;;;;;;;;5044978;28;20416;-69
2021/04/17 06:24:37;;;;;;;0.90;0.70;;;;;;;;;;5039752;28;20455;-68
2021/04/17 06:27:03;;;;;;;4.30;0.80;;;;;;;;;;5038963;28;20416;-69
2021/04/17 06:29:29;;;;;;;0.90;0.60;;;;;;;;;;5047056;28;20934;-68
2021/04/17 06:31:55;;;;;;;0.80;0.60;;;;;;;;;;5033948;28;20404;-69
2021/04/17 06:34:21;;;;;;;0.80;0.60;;;;;;;;;;5037799;28;20412;-64
2021/04/17 06:36:47;;;;;;;0.93;0.70;;;;;;;;;;5042194;28;20404;-64
2021/04/17 06:39:13;;;;;;;1.47;0.70;;;;;;;;;;5032634;28;20966;-68
2021/04/17 06:41:41;;;;;;;0.80;0.60;;;;;;;;;;5045254;28;20418;-68
2021/04/17 06:44:08;;;;;;;1.17;1.07;;;;;;;;;;5044129;28;20919;-69
2021/04/17 06:46:34;;;;;;;0.70;0.50;;;;;;;;;;5050733;28;20413;-66
2021/04/17 06:49:01;;;;;;;2.27;0.93;;;;;;;;;;5015966;28;20802;-67
2021/04/17 06:51:27;;;;;;;0.90;0.70;;;;;;;;;;5036959;28;20480;-68
2021/04/17 06:53:53;;;;;;;3.47;0.77;;;;;;;;;;5042690;28;20449;-67
2021/04/17 06:56:19;;;;;;;1.77;0.77;;;;;;;;;;5036497;28;20431;-66
2021/04/17 06:58:45;;;;;;;1.10;0.70;;;;;;;;;;5047064;28;20425;-68
2021/04/17 07:01:12;;;;;;;0.80;0.57;;;;;;;;;;5035828;28;20405;-68
2021/04/17 07:03:38;;;;;;;0.80;0.60;;;;;;;;;;5045642;28;20543;-68
2021/04/17 07:06:04;;;;;;;1.23;0.73;;;;;;;;;;5045290;28;20481;-69
2021/04/17 07:08:30;;;;;;;1.20;1.10;;;;;;;;;;5044405;28;20802;-68
2021/04/17 07:10:58;;;;;;;0.90;0.80;;;;;;;;;;5036568;28;20417;-69
2021/04/17 07:13:25;;;;;;;0.77;0.50;;;;;;;;;;5032384;28;20417;-68
2021/04/17 07:15:54;;;;;;;1.10;0.83;;;;;;;;;;5030517;28;20418;-66
2021/04/17 07:18:26;;;;;;;1.00;0.90;;;;;;;;;;5031221;28;20438;-68
2021/04/17 07:20:52;;;;;;;0.70;0.50;;;;;;;;;;5031003;28;20434;-68
2021/04/17 07:23:30;;;;;;;0.80;0.60;;;;;;;;;;5030770;28;20418;-68
2021/04/17 07:26:12;;;;;;;1.97;1.13;;;;;;;;;;5029851;28;20421;-67
2021/04/17 07:28:38;;;;;;;1.50;0.90;;;;;;;;;;5030148;28;20438;-69
2021/04/17 07:31:05;;;;;;;2.63;1.97;;;;;;;;;;5028428;28;20510;-67
2021/04/17 07:33:31;;;;;;;1.43;1.33;;;;;;;;;;5031049;28;20413;-67
2021/04/17 07:36:00;;;;;;;1.83;1.53;;;;;;;;;;5032228;28;20445;-67
2021/04/17 07:38:27;;;;;;;0.80;0.80;;;;;;;;;;5031013;28;20532;-68
2021/04/17 07:41:02;;;;;;;1.73;1.57;;;;;;;;;;5030507;28;20962;-69
2021/04/17 07:43:44;;;;;;;0.80;0.53;;;;;;;;;;5026316;28;20449;-66
2021/04/17 07:46:11;;;;;;;1.47;0.67;;;;;;;;;;5020003;28;20423;-68
2021/04/17 07:48:36;;;;;;;0.90;0.70;;;;;;;;;;5027134;28;20440;-68
2021/04/17 07:51:04;;;;;;;1.23;0.70;;;;;;;;;;5027793;28;20423;-68
2021/04/17 07:53:34;;;;;;;0.90;0.70;;;;;;;;;;5027947;28;20415;-67
2021/04/17 07:56:19;;;;;;;1.20;0.90;;;;;;;;;;5029227;28;20396;-69
2021/04/17 07:58:48;;;;;;;0.80;0.60;;;;;;;;;;5028399;28;20423;-69
2021/04/17 08:01:16;;;;;;;1.80;0.97;;;;;;;;;;5027594;28;20508;-67
2021/04/17 08:03:43;;;;;;;2.50;0.83;;;;;;;;;;5027688;28;20642;-68
2021/04/17 08:06:09;;;;;;;3.93;1.20;;;;;;;;;;5028402;28;20432;-66
2021/04/17 08:08:35;;;;;;;1.30;1.07;;;;;;;;;;5030493;28;21013;-67
2021/04/17 08:11:01;;;;;;;1.80;0.93;;;;;;;;;;5028357;28;20755;-68
2021/04/17 08:13:27;;;;;;;1.73;1.00;;;;;;;;;;5025780;28;20418;-67
2021/04/17 08:15:56;;;;;;;1.00;0.83;;;;;;;;;;5023568;28;20442;-67
2021/04/17 08:18:22;;;;;;;2.60;1.10;;;;;;;;;;5024111;28;20516;-68
2021/04/17 08:20:48;;;;;;;0.90;0.63;;;;;;;;;;5038825;28;20435;-67
2021/04/17 08:23:17;;;;;;;1.00;0.67;;;;;;;;;;5028472;28;20416;-69
2021/04/17 08:25:43;;;;;;;1.07;0.90;;;;;;;;;;5031945;28;20484;-67
2021/04/17 08:28:19;;;;;;;1.00;0.53;;;;;;;;;;5035043;28;20442;-68
2021/04/17 08:30:45;;;;;;;0.83;0.67;;;;;;;;;;5034790;28;20366;-67
2021/04/17 08:33:20;;;;;;;2.23;1.13;;;;;;;;;;5033200;28;20431;-67
2021/04/17 08:35:46;;;;;;;0.80;0.70;;;;;;;;;;5031189;28;20374;-66
2021/04/17 08:38:14;;;;;;;0.90;0.60;;;;;;;;;;5035579;28;20413;-69
2021/04/17 08:40:40;;;;;;;0.80;0.53;;;;;;;;;;5032022;28;20452;-67
2021/04/17 08:43:16;;;;;;;1.97;0.80;;;;;;;;;;5034576;28;20476;-67
2021/04/17 08:45:57;;;;;;;1.10;0.60;;;;;;;;;;5033392;28;20395;-66
2021/04/17 08:48:42;;;;;;;0.90;0.67;;;;;;;;;;5032578;28;20400;-66
2021/04/17 08:51:25;;;;;;;2.43;2.30;;;;;;;;;;5036774;28;20403;-68
2021/04/17 08:54:03;;;;;;;1.57;0.73;;;;;;;;;;5033070;28;20729;-68
2021/04/17 08:56:44;;;;;;;1.07;0.70;;;;;;;;;;5033754;28;20387;-69
2021/04/17 08:59:11;;;;;;;0.70;0.60;;;;;;;;;;5051658;28;20425;-68
2021/04/17 09:01:40;;;;;;;0.90;0.70;;;;;;;;;;5035496;28;20463;-69
2021/04/17 09:04:13;;;;;;;0.80;0.57;;;;;;;;;;5037095;28;20488;-68
2021/04/17 09:06:41;;;;;;;6.73;0.80;;;;;;;;;;5049983;28;20403;-68
2021/04/17 09:09:16;;;;;;;0.93;0.63;;;;;;;;;;5046762;28;20401;-66
2021/04/17 09:11:46;;;;;;;0.70;0.50;;;;;;;;;;5033480;28;20382;-67
2021/04/17 09:14:33;;;;;;;2.77;0.90;;;;;;;;;;5045140;28;20422;-66
2021/04/17 09:17:04;;;;;;;1.27;0.60;;;;;;;;;;5034995;28;20874;-65
2021/04/17 09:19:39;;;;;;;1.07;0.70;;;;;;;;;;5039776;28;20396;-68
2021/04/17 09:22:23;;;;;;;0.80;0.57;;;;;;;;;;5043393;28;20416;-65
2021/04/17 09:24:49;;;;;;;1.00;0.67;;;;;;;;;;5050694;28;20488;-67
2021/04/17 09:27:29;;;;;;;1.67;1.23;;;;;;;;;;5037820;28;20486;-67
2021/04/17 09:29:59;;;;;;;0.93;0.63;;;;;;;;;;5034270;28;20428;-67
2021/04/17 09:32:31;;;;;;;1.10;0.90;;;;;;;;;;5036017;28;20402;-68
2021/04/17 09:34:57;;;;;;;1.63;0.80;;;;;;;;;;5044434;28;20450;-69
2021/04/17 09:37:27;;;;;;;0.70;0.60;;;;;;;;;;5047410;28;20423;-68
2021/04/17 09:39:53;;;;;;;0.90;0.80;;;;;;;;;;5047447;23;20487;-67
2021/04/17 09:42:29;;;;;;;4.40;0.80;;;;;;;;;;5029247;28;20469;-68
2021/04/17 09:44:56;;;;;;;1.27;1.17;;;;;;;;;;5026500;28;20462;-68
2021/04/17 09:47:22;;;;;;;2.50;0.90;;;;;;;;;;5047134;28;20863;-67
2021/04/17 09:49:49;;;;;;;1.43;0.80;;;;;;;;;;5031933;28;20490;-67
2021/04/17 09:52:19;;;;;;;0.80;0.60;;;;;;;;;;5018179;28;20921;-66
2021/04/17 09:54:46;;;;;;;0.80;0.50;;;;;;;;;;5027756;28;20488;-68
2021/04/17 09:57:12;;;;;;;2.50;0.70;;;;;;;;;;5001893;28;20447;-67
2021/04/17 09:59:38;;;;;;;1.07;0.50;;;;;;;;;;5010843;28;20446;-69
2021/04/17 10:02:04;;;;;;;3.80;1.03;;;;;;;;;;5006732;28;20986;-68
2021/04/17 10:05:06;;;;;;;1.27;0.57;;;;;;;;;;5005781;28;20830;-67
2021/04/17 10:07:41;;;;;;;0.83;0.60;;;;;;;;;;4951176;29;20393;-69
2021/04/17 10:10:08;;;;;;;1.10;0.73;;;;;;;;;;5003082;28;20403;-68
2021/04/17 10:12:46;;;;;;;0.70;0.60;;;;;;;;;;5013309;28;20863;-68
2021/04/17 10:15:15;;;;;;;0.87;0.80;;;;;;;;;;5003666;28;20395;-67
2021/04/17 10:17:42;;;;;;;3.13;1.00;;;;;;;;;;5002485;28;20380;-67
2021/04/17 10:20:09;;;;;;;1.63;0.90;;;;;;;;;;5003649;28;20406;-68
2021/04/17 10:22:34;;;;;;;1.70;1.60;;;;;;;;;;5006815;28;20426;-68
2021/04/17 10:25:01;;;;;;;4.03;3.63;;;;;;;;;;5002265;28;20506;-69
2021/04/17 10:27:33;;;;;;;0.70;0.50;;;;;;;;;;5006448;28;20383;-68
2021/04/17 10:30:13;;;;;;;1.30;0.70;;;;;;;;;;5004699;28;20429;-68
2021/04/17 10:32:39;;;;;;;2.40;0.80;;;;;;;;;;5007466;28;20405;-68
2021/04/17 10:35:08;;;;;;;1.00;0.70;;;;;;;;;;5004763;28;20463;-68
2021/04/17 10:37:43;;;;;;;0.90;0.70;;;;;;;;;;5003315;28;20405;-68
2021/04/17 10:40:12;;;;;;;1.87;1.33;;;;;;;;;;5003247;28;20445;-66
2021/04/17 10:42:42;;;;;;;0.90;0.60;;;;;;;;;;5004559;28;20398;-67
2021/04/17 10:45:09;;;;;;;0.90;0.60;;;;;;;;;;5001444;28;20450;-68
2021/04/17 10:47:34;;;;;;;1.10;1.00;;;;;;;;;;5001418;28;20432;-69
2021/04/17 10:50:14;;;;;;;3.83;0.80;;;;;;;;;;5002211;28;20417;-68
2021/04/17 10:52:42;;;;;;;2.47;1.10;;;;;;;;;;4999913;28;20413;-68
2021/04/17 10:55:08;;;;;;;1.63;1.30;;;;;;;;;;4999707;28;20810;-66
2021/04/17 10:57:46;;;;;;;2.60;0.80;;;;;;;;;;5002039;28;20460;-67
2021/04/17 11:00:13;;;;;;;3.23;1.47;;;;;;;;;;5001777;28;20886;-67
2021/04/17 11:02:39;;;;;;;1.90;0.90;;;;;;;;;;4999371;28;20389;-69
2021/04/17 11:05:06;;;;;;;1.10;1.00;;;;;;;;;;5001421;28;20419;-69
2021/04/17 11:07:36;;;;;;;4.23;1.07;;;;;;;;;;5004168;28;20490;-67
2021/04/17 11:10:08;;;;;;;0.80;0.67;;;;;;;;;;4999634;28;20512;-66
2021/04/17 11:12:35;;;;;;;1.30;0.90;;;;;;;;;;5000314;28;20483;-69
2021/04/17 11:15:24;;;;;;;1.10;0.90;;;;;;;;;;5000040;28;21161;-68
2021/04/17 11:18:10;;;;;;;0.90;0.70;;;;;;;;;;5001569;28;20899;-69
2021/04/17 11:21:02;;;;;;;0.70;0.50;;;;;;;;;;4996912;28;20465;-69
2021/04/17 11:23:40;;;;;;;1.00;0.77;;;;;;;;;;4996748;28;20422;-69
2021/04/17 11:26:06;;;;;;;2.20;0.80;;;;;;;;;;5001356;28;20755;-69
2021/04/17 11:28:32;;;;;;;1.93;1.10;;;;;;;;;;5000305;28;20377;-68
2021/04/17 11:30:59;;;;;;;0.90;0.63;;;;;;;;;;5003789;28;20421;-67
2021/04/17 11:33:25;;;;;;;2.40;0.70;;;;;;;;;;4990965;28;20909;-68
2021/04/17 11:35:51;;;;;;;0.77;0.60;;;;;;;;;;5015150;28;20891;-68
2021/04/17 11:38:17;;;;;;;1.10;0.90;;;;;;;;;;5026229;28;20756;-67
2021/04/17 11:40:44;;;;;;;1.00;0.60;;;;;;;;;;5005926;28;20412;-67
2021/04/17 11:43:10;;;;;;;1.23;1.13;;;;;;;;;;5004141;28;20775;-68
2021/04/17 11:45:36;;;;;;;1.47;1.27;;;;;;;;;;5000461;28;20450;-69
2021/04/17 11:48:03;;;;;;;0.83;0.70;;;;;;;;;;4998613;28;20412;-68
2021/04/17 11:50:29;;;;;;;4.13;1.20;;;;;;;;;;5002504;28;20432;-68
2021/04/17 11:52:55;;;;;;;1.73;1.03;;;;;;;;;;4991226;28;20786;-68
2021/04/17 11:55:23;;;;;;;4.53;0.80;;;;;;;;;;5002100;28;20416;-67
2021/04/17 11:57:49;;;;;;;1.37;1.27;;;;;;;;;;5000216;28;20434;-68
2021/04/17 12:00:15;;;;;;;0.93;0.83;;;;;;;;;;5001110;28;20422;-68
2021/04/17 12:02:41;;;;;;;1.60;1.50;;;;;;;;;;5003413;28;20432;-69
2021/04/17 12:05:07;;;;;;;1.50;1.07;;;;;;;;;;5008674;28;20804;-68
2021/04/17 12:07:33;;;;;;;0.80;0.80;;;;;;;;;;5011302;28;20413;-68
2021/04/17 12:09:59;;;;;;;0.97;0.57;;;;;;;;;;5010003;28;20406;-68
2021/04/17 12:12:25;;;;;;;0.80;0.70;;;;;;;;;;5006624;28;20420;-67
2021/04/17 12:14:51;;;;;;;0.80;0.60;;;;;;;;;;5002639;28;20178;-67
2021/04/17 12:17:17;;;;;;;0.70;0.50;;;;;;;;;;5000482;28;20761;-67
2021/04/17 12:19:43;;;;;;;1.77;1.40;;;;;;;;;;4993980;28;20456;-67
2021/04/17 12:22:09;;;;;;;1.37;1.00;;;;;;;;;;4997672;28;20417;-67
2021/04/17 12:24:35;;;;;;;0.80;0.70;;;;;;;;;;4995035;28;21633;-68
2021/04/17 12:27:01;;;;;;;3.20;1.30;;;;;;;;;;4999054;28;20868;-67
2021/04/17 12:29:27;;;;;;;1.43;0.80;;;;;;;;;;4997910;28;20442;-68
2021/04/17 12:31:54;;;;;;;1.00;0.80;;;;;;;;;;4999429;28;20466;-68
2021/04/17 12:34:19;;;;;;;1.00;0.70;;;;;;;;;;5003792;28;20875;-68
2021/04/17 12:36:45;;;;;;;0.80;0.50;;;;;;;;;;5007372;28;20523;-68
2021/04/17 12:39:11;;;;;;;1.57;0.70;;;;;;;;;;5006983;28;21040;-68
2021/04/17 12:41:37;;;;;;;4.50;0.80;;;;;;;;;;4995393;28;20864;-68
2021/04/17 12:44:03;;;;;;;1.67;0.80;;;;;;;;;;5014072;28;20865;-68
2021/04/17 12:46:29;;;;;;;0.87;0.80;;;;;;;;;;5012174;28;20396;-68
2021/04/17 12:48:55;;;;;;;2.30;1.07;;;;;;;;;;5011955;28;20819;-67
2021/04/17 12:51:21;;;;;;;3.60;1.17;;;;;;;;;;5006794;28;20496;-68
2021/04/17 12:53:47;;;;;;;13.47;1.53;;;;;;;;;;4999990;28;20484;-69
2021/04/17 12:56:13;;;;;;;1.30;0.83;;;;;;;;;;4994577;28;20388;-68
2021/04/17 12:58:40;;;;;;;8.60;2.70;;;;;;;;;;4992854;28;20414;-68
2021/04/17 13:01:06;;;;;;;1.57;1.00;;;;;;;;;;4998805;28;20796;-68
2021/04/17 13:03:33;;;;;;;2.30;1.93;;;;;;;;;;5006689;28;20430;-68
2021/04/17 13:05:59;;;;;;;1.13;0.70;;;;;;;;;;5007894;28;20829;-68
2021/04/17 13:08:27;;;;;;;0.80;0.60;;;;;;;;;;5020636;28;21066;-68
2021/04/17 13:10:54;;;;;;;0.80;0.70;;;;;;;;;;5015533;28;20847;-68
2021/04/17 13:13:20;;;;;;;1.10;1.00;;;;;;;;;;5007971;28;20417;-69
2021/04/17 13:15:46;;;;;;;1.60;1.20;;;;;;;;;;4994443;28;20412;-68
2021/04/17 13:18:13;;;;;;;3.93;0.70;;;;;;;;;;4994147;28;20406;-68
2021/04/17 13:20:39;;;;;;;0.80;0.60;;;;;;;;;;4993399;28;20438;-68
2021/04/17 13:23:05;;;;;;;1.17;0.93;;;;;;;;;;4993447;28;20955;-68
2021/04/17 13:25:31;;;;;;;1.07;0.97;;;;;;;;;;4998408;28;20468;-68
2021/04/17 13:27:57;;;;;;;2.90;0.87;;;;;;;;;;4999968;28;20484;-68
2021/04/17 13:30:23;;;;;;;1.67;0.80;;;;;;;;;;4994611;28;20580;-68
2021/04/17 13:32:51;;;;;;;4.97;1.97;;;;;;;;;;5002282;28;20424;-68
2021/04/17 13:35:17;;;;;;;0.80;0.60;;;;;;;;;;4998934;28;20417;-69
2021/04/17 13:37:43;;;;;;;4.17;0.87;;;;;;;;;;5018479;28;20575;-68
2021/04/17 13:40:10;;;;;;;1.40;1.30;;;;;;;;;;5009369;28;20510;-68
2021/04/17 13:42:35;;;;;;;3.27;1.47;;;;;;;;;;4999783;28;20451;-67
2021/04/17 13:45:02;;;;;;;1.50;0.70;;;;;;;;;;5003595;28;20887;-68
2021/04/17 13:47:28;;;;;;;1.63;1.23;;;;;;;;;;5000653;28;20404;-67
2021/04/17 13:49:54;;;;;;;2.43;1.10;;;;;;;;;;5007794;28;20435;-67
2021/04/17 13:52:20;;;;;;;1.37;0.77;;;;;;;;;;5008706;28;20421;-68
2021/04/17 13:54:46;;;;;;;0.90;0.80;;;;;;;;;;5009908;28;20438;-68
2021/04/17 13:57:12;;;;;;;1.60;1.13;;;;;;;;;;5002269;28;20392;-68
2021/04/17 13:59:38;;;;;;;12.37;1.10;;;;;;;;;;4993171;28;20407;-68
2021/04/17 14:02:04;;;;;;;1.10;0.80;;;;;;;;;;4999055;28;20887;-68
2021/04/17 14:04:30;;;;;;;2.50;0.83;;;;;;;;;;4999417;28;20448;-68
2021/04/17 14:06:56;;;;;;;0.80;0.80;;;;;;;;;;5004151;28;20388;-68
2021/04/17 14:09:22;;;;;;;4.70;1.10;;;;;;;;;;5003376;28;21119;-68
2021/04/17 14:11:51;;;;;;;1.00;0.80;;;;;;;;;;5000106;28;20854;-68
2021/04/17 14:14:17;;;;;;;1.40;1.10;;;;;;;;;;4999323;28;20425;-67
2021/04/17 14:16:43;;;;;;;3.53;1.73;;;;;;;;;;4999407;28;21251;-68
2021/04/17 14:19:09;;;;;;;2.03;1.20;;;;;;;;;;5005981;28;20431;-67
2021/04/17 14:21:35;;;;;;;0.90;0.80;;;;;;;;;;5000166;28;20504;-66
2021/04/17 14:24:01;;;;;;;1.27;0.93;;;;;;;;;;4989038;28;20868;-68
2021/04/17 14:26:27;;;;;;;1.10;0.77;;;;;;;;;;4998766;28;20480;-67
2021/04/17 14:28:53;;;;;;;2.50;1.37;;;;;;;;;;5005813;28;20424;-68
2021/04/17 14:31:19;;;;;;;2.57;1.50;;;;;;;;;;5010138;28;20403;-66
2021/04/17 14:33:45;;;;;;;1.53;1.10;;;;;;;;;;5008026;28;20527;-67
2021/04/17 14:36:11;;;;;;;0.77;0.60;;;;;;;;;;5009414;28;20521;-66
2021/04/17 14:38:37;;;;;;;0.90;0.80;;;;;;;;;;4991895;28;20476;-67
2021/04/17 14:41:03;;;;;;;1.17;1.07;;;;;;;;;;4996894;28;20426;-67
2021/04/17 14:43:30;;;;;;;1.00;0.70;;;;;;;;;;5011082;28;20411;-67
2021/04/17 14:45:56;;;;;;;1.00;0.80;;;;;;;;;;5010472;28;20452;-67